sensor_id;sensor_type;location;lat;lon;timestamp;P1;durP1;ratioP1;P2;durP2;ratioP2
19221;SDS011;9745;50.828;4.378;2023-05-23T00:02:04;58.97;;;27.00;;
19221;SDS011;9745;50.828;4.378;2023-05-23T00:04:33;55.33;;;24.83;;
19221;SDS011;9745;50.828;4.378;2023-05-23T00:07:02;50.23;;;25.93;;
19221;SDS011;9745;50.828;4.378;2023-05-23T00:09:28;65.10;;;26.83;;
19221;SDS011;9745;50.828;4.378;2023-05-23T00:11:55;51.13;;;24.60;;
19221;SDS011;9745;50.828;4.378;2023-05-23T00:14:21;63.83;;;26.77;;
19221;SDS011;9745;50.828;4.378;2023-05-23T00:16:47;53.23;;;25.70;;
19221;SDS011;9745;50.828;4.378;2023-05-23T00:19:14;59.03;;;26.03;;
19221;SDS011;9745;50.828;4.378;2023-05-23T00:21:45;53.87;;;25.07;;
19221;SDS011;9745;50.828;4.378;2023-05-23T00:24:14;54.37;;;23.20;;
19221;SDS011;9745;50.828;4.378;2023-05-23T00:26:42;44.63;;;22.13;;
19221;SDS011;9745;50.828;4.378;2023-05-23T00:29:08;51.03;;;24.20;;
19221;SDS011;9745;50.828;4.378;2023-05-23T00:31:39;50.47;;;24.93;;
19221;SDS011;9745;50.828;4.378;2023-05-23T00:34:06;44.73;;;22.13;;
19221;SDS011;9745;50.828;4.378;2023-05-23T00:36:32;49.27;;;23.23;;
19221;SDS011;9745;50.828;4.378;2023-05-23T00:39:01;47.50;;;21.80;;
19221;SDS011;9745;50.828;4.378;2023-05-23T00:41:27;40.53;;;20.77;;
19221;SDS011;9745;50.828;4.378;2023-05-23T00:43:54;42.20;;;21.40;;
19221;SDS011;9745;50.828;4.378;2023-05-23T00:46:20;44.53;;;21.47;;
19221;SDS011;9745;50.828;4.378;2023-05-23T00:48:46;43.20;;;20.10;;
19221;SDS011;9745;50.828;4.378;2023-05-23T00:51:12;42.77;;;21.43;;
19221;SDS011;9745;50.828;4.378;2023-05-23T00:53:38;50.23;;;21.97;;
19221;SDS011;9745;50.828;4.378;2023-05-23T00:56:04;45.30;;;22.13;;
19221;SDS011;9745;50.828;4.378;2023-05-23T00:58:30;43.50;;;22.07;;
19221;SDS011;9745;50.828;4.378;2023-05-23T01:00:56;40.13;;;21.10;;
19221;SDS011;9745;50.828;4.378;2023-05-23T01:03:23;42.70;;;21.90;;
19221;SDS011;9745;50.828;4.378;2023-05-23T01:05:52;41.30;;;20.43;;
19221;SDS011;9745;50.828;4.378;2023-05-23T01:08:20;45.63;;;21.47;;
19221;SDS011;9745;50.828;4.378;2023-05-23T01:10:46;45.23;;;23.50;;
19221;SDS011;9745;50.828;4.378;2023-05-23T01:13:15;44.63;;;23.37;;
19221;SDS011;9745;50.828;4.378;2023-05-23T01:15:57;46.20;;;24.20;;
19221;SDS011;9745;50.828;4.378;2023-05-23T01:18:28;55.77;;;25.10;;
19221;SDS011;9745;50.828;4.378;2023-05-23T01:20:55;55.53;;;25.47;;
19221;SDS011;9745;50.828;4.378;2023-05-23T01:28:43;48.47;;;24.43;;
19221;SDS011;9745;50.828;4.378;2023-05-23T01:31:10;44.80;;;22.77;;
19221;SDS011;9745;50.828;4.378;2023-05-23T01:33:37;41.30;;;21.50;;
19221;SDS011;9745;50.828;4.378;2023-05-23T01:36:04;41.83;;;21.47;;
19221;SDS011;9745;50.828;4.378;2023-05-23T01:38:31;36.27;;;22.13;;
19221;SDS011;9745;50.828;4.378;2023-05-23T01:40:57;46.57;;;21.83;;
19221;SDS011;9745;50.828;4.378;2023-05-23T01:43:23;39.00;;;20.23;;
19221;SDS011;9745;50.828;4.378;2023-05-23T01:45:50;47.43;;;19.93;;
19221;SDS011;9745;50.828;4.378;2023-05-23T01:48:16;38.70;;;20.20;;
19221;SDS011;9745;50.828;4.378;2023-05-23T01:50:43;37.20;;;19.40;;
19221;SDS011;9745;50.828;4.378;2023-05-23T01:53:13;41.67;;;19.80;;
19221;SDS011;9745;50.828;4.378;2023-05-23T01:55:40;42.80;;;20.47;;
19221;SDS011;9745;50.828;4.378;2023-05-23T01:58:06;34.37;;;20.47;;
19221;SDS011;9745;50.828;4.378;2023-05-23T02:00:34;37.43;;;19.77;;
19221;SDS011;9745;50.828;4.378;2023-05-23T02:03:00;33.77;;;19.70;;
19221;SDS011;9745;50.828;4.378;2023-05-23T02:05:26;38.97;;;19.10;;
19221;SDS011;9745;50.828;4.378;2023-05-23T02:07:52;40.10;;;21.47;;
19221;SDS011;9745;50.828;4.378;2023-05-23T02:10:18;37.00;;;19.53;;
19221;SDS011;9745;50.828;4.378;2023-05-23T02:12:44;39.27;;;20.07;;
19221;SDS011;9745;50.828;4.378;2023-05-23T02:15:10;37.57;;;19.77;;
19221;SDS011;9745;50.828;4.378;2023-05-23T02:17:36;36.03;;;18.60;;
19221;SDS011;9745;50.828;4.378;2023-05-23T02:20:03;38.40;;;19.10;;
19221;SDS011;9745;50.828;4.378;2023-05-23T02:22:30;35.80;;;18.97;;
19221;SDS011;9745;50.828;4.378;2023-05-23T02:24:56;34.87;;;18.17;;
19221;SDS011;9745;50.828;4.378;2023-05-23T02:27:22;39.60;;;19.87;;
19221;SDS011;9745;50.828;4.378;2023-05-23T02:29:48;40.37;;;18.60;;
19221;SDS011;9745;50.828;4.378;2023-05-23T02:32:14;39.27;;;19.80;;
19221;SDS011;9745;50.828;4.378;2023-05-23T02:34:40;39.57;;;19.57;;
19221;SDS011;9745;50.828;4.378;2023-05-23T02:37:06;30.53;;;18.70;;
19221;SDS011;9745;50.828;4.378;2023-05-23T02:39:34;28.03;;;16.97;;
19221;SDS011;9745;50.828;4.378;2023-05-23T02:42:00;29.53;;;17.20;;
19221;SDS011;9745;50.828;4.378;2023-05-23T02:44:26;28.07;;;15.90;;
19221;SDS011;9745;50.828;4.378;2023-05-23T02:46:52;28.13;;;15.67;;
19221;SDS011;9745;50.828;4.378;2023-05-23T02:49:18;23.90;;;14.60;;
19221;SDS011;9745;50.828;4.378;2023-05-23T02:51:44;23.47;;;13.87;;
19221;SDS011;9745;50.828;4.378;2023-05-23T02:54:10;22.97;;;13.67;;
19221;SDS011;9745;50.828;4.378;2023-05-23T02:56:36;25.37;;;14.13;;
19221;SDS011;9745;50.828;4.378;2023-05-23T02:59:02;26.17;;;14.03;;
19221;SDS011;9745;50.828;4.378;2023-05-23T03:01:28;28.10;;;14.70;;
19221;SDS011;9745;50.828;4.378;2023-05-23T03:03:54;27.23;;;14.27;;
19221;SDS011;9745;50.828;4.378;2023-05-23T03:06:20;28.47;;;15.60;;
19221;SDS011;9745;50.828;4.378;2023-05-23T03:08:46;23.30;;;13.90;;
19221;SDS011;9745;50.828;4.378;2023-05-23T03:11:12;23.63;;;14.33;;
19221;SDS011;9745;50.828;4.378;2023-05-23T03:13:39;27.80;;;14.73;;
19221;SDS011;9745;50.828;4.378;2023-05-23T03:16:05;26.67;;;13.67;;
19221;SDS011;9745;50.828;4.378;2023-05-23T03:18:31;29.30;;;15.33;;
19221;SDS011;9745;50.828;4.378;2023-05-23T03:20:57;33.13;;;16.47;;
19221;SDS011;9745;50.828;4.378;2023-05-23T03:23:23;30.43;;;15.37;;
19221;SDS011;9745;50.828;4.378;2023-05-23T03:25:49;35.30;;;17.40;;
19221;SDS011;9745;50.828;4.378;2023-05-23T03:28:15;26.87;;;16.07;;
19221;SDS011;9745;50.828;4.378;2023-05-23T03:30:41;34.87;;;17.97;;
19221;SDS011;9745;50.828;4.378;2023-05-23T03:33:07;35.97;;;19.33;;
19221;SDS011;9745;50.828;4.378;2023-05-23T03:35:33;36.13;;;18.80;;
19221;SDS011;9745;50.828;4.378;2023-05-23T03:37:59;37.13;;;19.93;;
19221;SDS011;9745;50.828;4.378;2023-05-23T03:40:25;36.47;;;19.57;;
19221;SDS011;9745;50.828;4.378;2023-05-23T03:43:01;35.90;;;20.03;;
19221;SDS011;9745;50.828;4.378;2023-05-23T03:45:29;39.00;;;21.07;;
19221;SDS011;9745;50.828;4.378;2023-05-23T03:47:55;40.07;;;21.30;;
19221;SDS011;9745;50.828;4.378;2023-05-23T03:50:21;40.33;;;23.27;;
19221;SDS011;9745;50.828;4.378;2023-05-23T03:52:47;38.97;;;21.43;;
19221;SDS011;9745;50.828;4.378;2023-05-23T03:55:13;45.37;;;23.77;;
19221;SDS011;9745;50.828;4.378;2023-05-23T03:57:39;47.67;;;24.80;;
19221;SDS011;9745;50.828;4.378;2023-05-23T04:00:05;47.00;;;25.20;;
19221;SDS011;9745;50.828;4.378;2023-05-23T04:02:37;48.40;;;25.97;;
19221;SDS011;9745;50.828;4.378;2023-05-23T04:05:04;49.97;;;25.53;;
19221;SDS011;9745;50.828;4.378;2023-05-23T04:07:30;50.63;;;27.03;;
19221;SDS011;9745;50.828;4.378;2023-05-23T04:09:58;47.30;;;25.87;;
19221;SDS011;9745;50.828;4.378;2023-05-23T04:12:24;43.60;;;23.70;;
19221;SDS011;9745;50.828;4.378;2023-05-23T04:14:50;38.93;;;22.70;;
19221;SDS011;9745;50.828;4.378;2023-05-23T04:17:17;39.33;;;21.43;;
19221;SDS011;9745;50.828;4.378;2023-05-23T04:19:43;38.43;;;21.30;;
19221;SDS011;9745;50.828;4.378;2023-05-23T04:22:09;38.40;;;20.53;;
19221;SDS011;9745;50.828;4.378;2023-05-23T04:24:35;34.27;;;19.23;;
19221;SDS011;9745;50.828;4.378;2023-05-23T04:27:01;27.63;;;16.13;;
19221;SDS011;9745;50.828;4.378;2023-05-23T04:29:27;31.40;;;15.87;;
19221;SDS011;9745;50.828;4.378;2023-05-23T04:31:55;26.87;;;14.17;;
19221;SDS011;9745;50.828;4.378;2023-05-23T04:34:21;25.23;;;14.40;;
19221;SDS011;9745;50.828;4.378;2023-05-23T04:36:48;19.87;;;12.77;;
19221;SDS011;9745;50.828;4.378;2023-05-23T04:39:14;25.67;;;12.77;;
19221;SDS011;9745;50.828;4.378;2023-05-23T04:41:40;23.73;;;12.87;;
19221;SDS011;9745;50.828;4.378;2023-05-23T04:44:09;24.63;;;12.93;;
19221;SDS011;9745;50.828;4.378;2023-05-23T04:46:35;23.43;;;13.47;;
19221;SDS011;9745;50.828;4.378;2023-05-23T04:49:01;23.03;;;12.60;;
19221;SDS011;9745;50.828;4.378;2023-05-23T04:51:28;22.07;;;12.23;;
19221;SDS011;9745;50.828;4.378;2023-05-23T04:53:54;23.77;;;12.00;;
19221;SDS011;9745;50.828;4.378;2023-05-23T04:56:20;21.23;;;12.33;;
19221;SDS011;9745;50.828;4.378;2023-05-23T04:58:46;19.50;;;11.53;;
19221;SDS011;9745;50.828;4.378;2023-05-23T05:01:13;18.90;;;11.40;;
19221;SDS011;9745;50.828;4.378;2023-05-23T05:03:39;23.77;;;12.93;;
19221;SDS011;9745;50.828;4.378;2023-05-23T05:06:05;22.23;;;12.67;;
19221;SDS011;9745;50.828;4.378;2023-05-23T05:08:31;23.53;;;12.37;;
19221;SDS011;9745;50.828;4.378;2023-05-23T05:10:57;21.93;;;12.57;;
19221;SDS011;9745;50.828;4.378;2023-05-23T05:13:23;20.80;;;12.90;;
19221;SDS011;9745;50.828;4.378;2023-05-23T05:15:49;30.87;;;15.90;;
19221;SDS011;9745;50.828;4.378;2023-05-23T05:18:16;31.60;;;18.23;;
19221;SDS011;9745;50.828;4.378;2023-05-23T05:20:42;36.67;;;17.33;;
19221;SDS011;9745;50.828;4.378;2023-05-23T05:23:08;24.70;;;16.30;;
19221;SDS011;9745;50.828;4.378;2023-05-23T05:25:35;26.07;;;16.10;;
19221;SDS011;9745;50.828;4.378;2023-05-23T05:28:02;29.07;;;15.53;;
19221;SDS011;9745;50.828;4.378;2023-05-23T05:30:32;29.30;;;14.97;;
19221;SDS011;9745;50.828;4.378;2023-05-23T05:33:01;24.40;;;13.77;;
19221;SDS011;9745;50.828;4.378;2023-05-23T05:35:31;31.33;;;14.93;;
19221;SDS011;9745;50.828;4.378;2023-05-23T05:37:58;25.07;;;13.80;;
19221;SDS011;9745;50.828;4.378;2023-05-23T05:40:24;31.27;;;13.63;;
19221;SDS011;9745;50.828;4.378;2023-05-23T05:42:50;32.63;;;14.00;;
19221;SDS011;9745;50.828;4.378;2023-05-23T05:45:17;30.30;;;13.47;;
19221;SDS011;9745;50.828;4.378;2023-05-23T05:47:43;27.03;;;13.13;;
19221;SDS011;9745;50.828;4.378;2023-05-23T05:50:09;24.97;;;13.30;;
19221;SDS011;9745;50.828;4.378;2023-05-23T05:52:36;24.83;;;12.57;;
19221;SDS011;9745;50.828;4.378;2023-05-23T05:55:05;26.30;;;13.10;;
19221;SDS011;9745;50.828;4.378;2023-05-23T05:57:32;29.50;;;12.23;;
19221;SDS011;9745;50.828;4.378;2023-05-23T05:59:58;28.17;;;12.03;;
19221;SDS011;9745;50.828;4.378;2023-05-23T06:02:24;28.27;;;11.77;;
19221;SDS011;9745;50.828;4.378;2023-05-23T06:04:50;29.13;;;11.43;;
19221;SDS011;9745;50.828;4.378;2023-05-23T06:07:16;30.30;;;12.40;;
19221;SDS011;9745;50.828;4.378;2023-05-23T06:09:42;26.37;;;11.47;;
19221;SDS011;9745;50.828;4.378;2023-05-23T06:12:09;37.57;;;12.77;;
19221;SDS011;9745;50.828;4.378;2023-05-23T06:14:35;30.57;;;11.67;;
19221;SDS011;9745;50.828;4.378;2023-05-23T06:17:01;32.33;;;11.60;;
19221;SDS011;9745;50.828;4.378;2023-05-23T06:19:27;33.17;;;12.73;;
19221;SDS011;9745;50.828;4.378;2023-05-23T06:21:53;29.47;;;12.53;;
19221;SDS011;9745;50.828;4.378;2023-05-23T06:24:19;30.80;;;12.47;;
19221;SDS011;9745;50.828;4.378;2023-05-23T06:26:45;36.30;;;12.90;;
19221;SDS011;9745;50.828;4.378;2023-05-23T06:29:12;32.57;;;12.80;;
19221;SDS011;9745;50.828;4.378;2023-05-23T06:31:38;35.73;;;11.87;;
19221;SDS011;9745;50.828;4.378;2023-05-23T06:34:04;30.53;;;12.17;;
19221;SDS011;9745;50.828;4.378;2023-05-23T06:36:30;41.90;;;13.63;;
19221;SDS011;9745;50.828;4.378;2023-05-23T06:38:56;35.10;;;12.60;;
19221;SDS011;9745;50.828;4.378;2023-05-23T06:41:22;37.80;;;12.93;;
19221;SDS011;9745;50.828;4.378;2023-05-23T06:43:48;32.80;;;12.43;;
19221;SDS011;9745;50.828;4.378;2023-05-23T06:46:14;42.63;;;13.07;;
19221;SDS011;9745;50.828;4.378;2023-05-23T06:48:40;30.33;;;12.10;;
19221;SDS011;9745;50.828;4.378;2023-05-23T06:51:06;28.93;;;12.43;;
19221;SDS011;9745;50.828;4.378;2023-05-23T06:53:32;30.03;;;12.27;;
19221;SDS011;9745;50.828;4.378;2023-05-23T06:55:58;23.80;;;11.73;;
19221;SDS011;9745;50.828;4.378;2023-05-23T06:58:24;25.20;;;10.43;;
19221;SDS011;9745;50.828;4.378;2023-05-23T07:00:50;24.30;;;10.53;;
19221;SDS011;9745;50.828;4.378;2023-05-23T07:03:16;23.67;;;11.00;;
19221;SDS011;9745;50.828;4.378;2023-05-23T07:05:43;21.93;;;9.73;;
19221;SDS011;9745;50.828;4.378;2023-05-23T07:08:09;21.53;;;10.07;;
19221;SDS011;9745;50.828;4.378;2023-05-23T07:10:35;21.70;;;8.63;;
19221;SDS011;9745;50.828;4.378;2023-05-23T07:13:03;15.97;;;6.97;;
19221;SDS011;9745;50.828;4.378;2023-05-23T07:15:28;21.23;;;7.20;;
19221;SDS011;9745;50.828;4.378;2023-05-23T07:17:54;18.83;;;7.37;;
19221;SDS011;9745;50.828;4.378;2023-05-23T07:20:21;21.67;;;7.30;;
19221;SDS011;9745;50.828;4.378;2023-05-23T07:22:47;20.00;;;7.53;;
19221;SDS011;9745;50.828;4.378;2023-05-23T07:25:14;25.10;;;8.07;;
19221;SDS011;9745;50.828;4.378;2023-05-23T07:27:40;16.00;;;7.57;;
19221;SDS011;9745;50.828;4.378;2023-05-23T07:30:07;20.03;;;8.10;;
19221;SDS011;9745;50.828;4.378;2023-05-23T07:32:34;18.73;;;7.70;;
19221;SDS011;9745;50.828;4.378;2023-05-23T07:35:00;17.80;;;8.43;;
19221;SDS011;9745;50.828;4.378;2023-05-23T07:37:26;22.87;;;8.27;;
19221;SDS011;9745;50.828;4.378;2023-05-23T07:39:52;20.73;;;7.90;;
19221;SDS011;9745;50.828;4.378;2023-05-23T07:42:18;15.17;;;7.30;;
19221;SDS011;9745;50.828;4.378;2023-05-23T07:44:44;17.73;;;6.90;;
19221;SDS011;9745;50.828;4.378;2023-05-23T07:47:10;13.67;;;6.60;;
19221;SDS011;9745;50.828;4.378;2023-05-23T07:49:36;15.47;;;7.23;;
19221;SDS011;9745;50.828;4.378;2023-05-23T07:52:02;12.83;;;6.33;;
19221;SDS011;9745;50.828;4.378;2023-05-23T07:54:28;13.67;;;6.20;;
19221;SDS011;9745;50.828;4.378;2023-05-23T07:56:54;18.27;;;6.50;;
19221;SDS011;9745;50.828;4.378;2023-05-23T07:59:20;20.50;;;6.40;;
19221;SDS011;9745;50.828;4.378;2023-05-23T08:01:46;16.97;;;6.20;;
19221;SDS011;9745;50.828;4.378;2023-05-23T08:04:14;15.60;;;6.43;;
19221;SDS011;9745;50.828;4.378;2023-05-23T08:06:40;15.60;;;5.67;;
19221;SDS011;9745;50.828;4.378;2023-05-23T08:09:07;18.53;;;7.13;;
19221;SDS011;9745;50.828;4.378;2023-05-23T08:11:33;15.70;;;6.77;;
19221;SDS011;9745;50.828;4.378;2023-05-23T08:14:00;13.47;;;5.63;;
19221;SDS011;9745;50.828;4.378;2023-05-23T08:16:26;15.57;;;7.80;;
19221;SDS011;9745;50.828;4.378;2023-05-23T08:18:52;17.83;;;6.60;;
19221;SDS011;9745;50.828;4.378;2023-05-23T08:21:18;22.00;;;7.73;;
19221;SDS011;9745;50.828;4.378;2023-05-23T08:23:44;16.23;;;7.57;;
19221;SDS011;9745;50.828;4.378;2023-05-23T08:26:10;15.97;;;8.20;;
19221;SDS011;9745;50.828;4.378;2023-05-23T08:28:36;14.80;;;7.97;;
19221;SDS011;9745;50.828;4.378;2023-05-23T08:31:02;12.77;;;7.63;;
19221;SDS011;9745;50.828;4.378;2023-05-23T08:33:28;15.90;;;6.80;;
19221;SDS011;9745;50.828;4.378;2023-05-23T08:35:54;21.23;;;7.03;;
19221;SDS011;9745;50.828;4.378;2023-05-23T08:38:20;15.10;;;7.53;;
19221;SDS011;9745;50.828;4.378;2023-05-23T08:40:49;16.17;;;7.40;;
19221;SDS011;9745;50.828;4.378;2023-05-23T08:43:19;17.83;;;7.53;;
19221;SDS011;9745;50.828;4.378;2023-05-23T08:45:45;17.40;;;7.80;;
19221;SDS011;9745;50.828;4.378;2023-05-23T08:48:12;17.10;;;7.13;;
19221;SDS011;9745;50.828;4.378;2023-05-23T08:50:40;14.97;;;6.97;;
19221;SDS011;9745;50.828;4.378;2023-05-23T08:53:07;13.83;;;7.43;;
19221;SDS011;9745;50.828;4.378;2023-05-23T08:55:34;14.97;;;7.33;;
19221;SDS011;9745;50.828;4.378;2023-05-23T08:58:02;14.17;;;6.70;;
19221;SDS011;9745;50.828;4.378;2023-05-23T09:00:28;17.67;;;7.43;;
19221;SDS011;9745;50.828;4.378;2023-05-23T09:02:55;18.13;;;6.43;;
19221;SDS011;9745;50.828;4.378;2023-05-23T09:05:21;14.60;;;6.57;;
19221;SDS011;9745;50.828;4.378;2023-05-23T09:07:47;12.93;;;6.30;;
19221;SDS011;9745;50.828;4.378;2023-05-23T09:10:15;17.10;;;6.23;;
19221;SDS011;9745;50.828;4.378;2023-05-23T09:12:41;13.33;;;6.80;;
19221;SDS011;9745;50.828;4.378;2023-05-23T09:15:08;15.87;;;7.10;;
19221;SDS011;9745;50.828;4.378;2023-05-23T09:17:35;16.13;;;7.73;;
19221;SDS011;9745;50.828;4.378;2023-05-23T09:20:02;16.20;;;8.10;;
19221;SDS011;9745;50.828;4.378;2023-05-23T09:22:31;19.23;;;8.10;;
19221;SDS011;9745;50.828;4.378;2023-05-23T09:24:57;15.97;;;8.40;;
19221;SDS011;9745;50.828;4.378;2023-05-23T09:27:23;17.50;;;7.67;;
19221;SDS011;9745;50.828;4.378;2023-05-23T09:29:49;14.40;;;6.70;;
19221;SDS011;9745;50.828;4.378;2023-05-23T09:32:16;13.60;;;6.73;;
19221;SDS011;9745;50.828;4.378;2023-05-23T09:34:56;13.03;;;7.20;;
19221;SDS011;9745;50.828;4.378;2023-05-23T09:37:31;17.80;;;7.33;;
19221;SDS011;9745;50.828;4.378;2023-05-23T09:40:02;17.03;;;7.63;;
19221;SDS011;9745;50.828;4.378;2023-05-23T09:42:33;16.87;;;7.17;;
19221;SDS011;9745;50.828;4.378;2023-05-23T09:44:59;20.00;;;7.20;;
19221;SDS011;9745;50.828;4.378;2023-05-23T09:47:25;11.53;;;6.93;;
19221;SDS011;9745;50.828;4.378;2023-05-23T09:49:51;13.07;;;6.73;;
19221;SDS011;9745;50.828;4.378;2023-05-23T09:52:17;14.23;;;8.07;;
19221;SDS011;9745;50.828;4.378;2023-05-23T09:54:46;17.50;;;7.97;;
19221;SDS011;9745;50.828;4.378;2023-05-23T09:57:13;17.00;;;7.43;;
19221;SDS011;9745;50.828;4.378;2023-05-23T09:59:40;18.20;;;8.07;;
19221;SDS011;9745;50.828;4.378;2023-05-23T10:02:11;20.27;;;8.17;;
19221;SDS011;9745;50.828;4.378;2023-05-23T10:04:40;13.97;;;7.80;;
19221;SDS011;9745;50.828;4.378;2023-05-23T10:09:38;16.07;;;7.10;;
19221;SDS011;9745;50.828;4.378;2023-05-23T10:12:48;19.93;;;8.37;;
19221;SDS011;9745;50.828;4.378;2023-05-23T10:14:56;13.77;;;6.40;;
19221;SDS011;9745;50.828;4.378;2023-05-23T10:17:31;16.20;;;7.50;;
19221;SDS011;9745;50.828;4.378;2023-05-23T10:20:05;14.50;;;6.60;;
19221;SDS011;9745;50.828;4.378;2023-05-23T10:22:34;9.87;;;5.30;;
19221;SDS011;9745;50.828;4.378;2023-05-23T10:25:01;13.33;;;6.13;;
19221;SDS011;9745;50.828;4.378;2023-05-23T10:27:28;11.73;;;5.77;;
19221;SDS011;9745;50.828;4.378;2023-05-23T10:29:55;10.53;;;5.77;;
19221;SDS011;9745;50.828;4.378;2023-05-23T10:32:22;14.77;;;6.03;;
19221;SDS011;9745;50.828;4.378;2023-05-23T10:40:20;9.07;;;4.43;;
19221;SDS011;9745;50.828;4.378;2023-05-23T10:42:57;6.53;;;3.50;;
19221;SDS011;9745;50.828;4.378;2023-05-23T10:45:24;11.83;;;4.00;;
19221;SDS011;9745;50.828;4.378;2023-05-23T10:47:51;10.00;;;3.60;;
19221;SDS011;9745;50.828;4.378;2023-05-23T10:50:30;11.43;;;3.67;;
19221;SDS011;9745;50.828;4.378;2023-05-23T10:52:58;12.27;;;4.10;;
19221;SDS011;9745;50.828;4.378;2023-05-23T10:55:24;8.40;;;4.83;;
19221;SDS011;9745;50.828;4.378;2023-05-23T10:58:11;10.50;;;4.90;;
19221;SDS011;9745;50.828;4.378;2023-05-23T11:00:37;9.20;;;4.13;;
19221;SDS011;9745;50.828;4.378;2023-05-23T11:03:04;8.43;;;4.03;;
19221;SDS011;9745;50.828;4.378;2023-05-23T11:05:33;4.97;;;2.73;;
19221;SDS011;9745;50.828;4.378;2023-05-23T11:08:06;7.77;;;3.00;;
19221;SDS011;9745;50.828;4.378;2023-05-23T11:10:55;6.97;;;3.00;;
19221;SDS011;9745;50.828;4.378;2023-05-23T11:13:21;6.60;;;2.77;;
19221;SDS011;9745;50.828;4.378;2023-05-23T11:15:47;8.77;;;3.27;;
19221;SDS011;9745;50.828;4.378;2023-05-23T11:18:25;11.13;;;3.00;;
19221;SDS011;9745;50.828;4.378;2023-05-23T11:20:52;10.13;;;3.13;;
19221;SDS011;9745;50.828;4.378;2023-05-23T11:23:18;12.73;;;3.20;;
19221;SDS011;9745;50.828;4.378;2023-05-23T11:25:51;9.07;;;3.00;;
19221;SDS011;9745;50.828;4.378;2023-05-23T11:28:17;7.47;;;3.37;;
19221;SDS011;9745;50.828;4.378;2023-05-23T11:30:46;9.60;;;2.93;;
19221;SDS011;9745;50.828;4.378;2023-05-23T11:33:13;9.40;;;3.20;;
19221;SDS011;9745;50.828;4.378;2023-05-23T11:35:41;14.70;;;4.00;;
19221;SDS011;9745;50.828;4.378;2023-05-23T11:38:07;8.43;;;2.90;;
19221;SDS011;9745;50.828;4.378;2023-05-23T11:40:35;6.67;;;2.70;;
19221;SDS011;9745;50.828;4.378;2023-05-23T11:43:03;7.43;;;2.60;;
19221;SDS011;9745;50.828;4.378;2023-05-23T11:45:29;14.00;;;4.00;;
19221;SDS011;9745;50.828;4.378;2023-05-23T11:47:56;12.53;;;3.77;;
19221;SDS011;9745;50.828;4.378;2023-05-23T11:50:22;15.13;;;3.87;;
19221;SDS011;9745;50.828;4.378;2023-05-23T11:52:48;21.50;;;3.97;;
19221;SDS011;9745;50.828;4.378;2023-05-23T11:55:18;10.60;;;3.50;;
19221;SDS011;9745;50.828;4.378;2023-05-23T11:57:45;12.43;;;3.20;;
19221;SDS011;9745;50.828;4.378;2023-05-23T12:00:11;17.27;;;4.33;;
19221;SDS011;9745;50.828;4.378;2023-05-23T12:02:41;9.97;;;3.23;;
19221;SDS011;9745;50.828;4.378;2023-05-23T12:05:08;18.10;;;3.87;;
19221;SDS011;9745;50.828;4.378;2023-05-23T12:07:35;16.77;;;4.07;;
19221;SDS011;9745;50.828;4.378;2023-05-23T12:10:02;11.03;;;3.30;;
19221;SDS011;9745;50.828;4.378;2023-05-23T12:12:30;11.13;;;3.40;;
19221;SDS011;9745;50.828;4.378;2023-05-23T12:14:56;11.17;;;3.63;;
19221;SDS011;9745;50.828;4.378;2023-05-23T12:17:22;8.37;;;3.60;;
19221;SDS011;9745;50.828;4.378;2023-05-23T12:19:48;13.33;;;3.80;;
19221;SDS011;9745;50.828;4.378;2023-05-23T12:22:14;12.43;;;2.83;;
19221;SDS011;9745;50.828;4.378;2023-05-23T12:24:47;15.17;;;3.50;;
19221;SDS011;9745;50.828;4.378;2023-05-23T12:27:14;14.10;;;3.83;;
19221;SDS011;9745;50.828;4.378;2023-05-23T12:29:48;11.47;;;3.63;;
19221;SDS011;9745;50.828;4.378;2023-05-23T12:32:15;11.87;;;3.57;;
19221;SDS011;9745;50.828;4.378;2023-05-23T12:34:41;16.60;;;4.20;;
19221;SDS011;9745;50.828;4.378;2023-05-23T12:37:07;19.10;;;3.47;;
19221;SDS011;9745;50.828;4.378;2023-05-23T12:39:34;19.63;;;4.33;;
19221;SDS011;9745;50.828;4.378;2023-05-23T12:42:07;11.10;;;3.83;;
19221;SDS011;9745;50.828;4.378;2023-05-23T12:44:34;15.90;;;4.80;;
19221;SDS011;9745;50.828;4.378;2023-05-23T12:47:01;15.77;;;3.87;;
19221;SDS011;9745;50.828;4.378;2023-05-23T12:49:28;12.73;;;3.63;;
19221;SDS011;9745;50.828;4.378;2023-05-23T12:51:54;10.27;;;3.00;;
19221;SDS011;9745;50.828;4.378;2023-05-23T12:54:20;14.43;;;4.13;;
19221;SDS011;9745;50.828;4.378;2023-05-23T12:56:46;15.50;;;3.43;;
19221;SDS011;9745;50.828;4.378;2023-05-23T12:59:12;12.17;;;3.37;;
19221;SDS011;9745;50.828;4.378;2023-05-23T13:01:38;16.53;;;3.80;;
19221;SDS011;9745;50.828;4.378;2023-05-23T13:04:04;17.40;;;4.07;;
19221;SDS011;9745;50.828;4.378;2023-05-23T13:06:30;13.47;;;3.93;;
19221;SDS011;9745;50.828;4.378;2023-05-23T13:08:57;16.13;;;4.40;;
19221;SDS011;9745;50.828;4.378;2023-05-23T13:11:23;13.30;;;4.13;;
19221;SDS011;9745;50.828;4.378;2023-05-23T13:13:49;16.30;;;4.47;;
19221;SDS011;9745;50.828;4.378;2023-05-23T13:16:16;14.33;;;3.87;;
19221;SDS011;9745;50.828;4.378;2023-05-23T13:18:43;13.63;;;3.80;;
19221;SDS011;9745;50.828;4.378;2023-05-23T13:21:09;16.73;;;4.37;;
19221;SDS011;9745;50.828;4.378;2023-05-23T13:23:35;17.17;;;3.80;;
19221;SDS011;9745;50.828;4.378;2023-05-23T13:26:02;12.33;;;4.20;;
19221;SDS011;9745;50.828;4.378;2023-05-23T13:28:29;16.63;;;3.70;;
19221;SDS011;9745;50.828;4.378;2023-05-23T13:30:55;22.90;;;5.90;;
19221;SDS011;9745;50.828;4.378;2023-05-23T13:33:21;17.77;;;4.33;;
19221;SDS011;9745;50.828;4.378;2023-05-23T13:35:48;14.40;;;3.80;;
19221;SDS011;9745;50.828;4.378;2023-05-23T13:38:16;15.80;;;4.13;;
19221;SDS011;9745;50.828;4.378;2023-05-23T13:40:42;17.23;;;4.10;;
19221;SDS011;9745;50.828;4.378;2023-05-23T13:43:08;12.63;;;4.80;;
19221;SDS011;9745;50.828;4.378;2023-05-23T13:45:35;18.30;;;3.90;;
19221;SDS011;9745;50.828;4.378;2023-05-23T13:48:01;12.73;;;4.13;;
19221;SDS011;9745;50.828;4.378;2023-05-23T13:50:27;18.80;;;4.87;;
19221;SDS011;9745;50.828;4.378;2023-05-23T13:52:53;15.77;;;3.87;;
19221;SDS011;9745;50.828;4.378;2023-05-23T13:55:20;13.03;;;3.77;;
19221;SDS011;9745;50.828;4.378;2023-05-23T13:57:46;14.47;;;4.37;;
19221;SDS011;9745;50.828;4.378;2023-05-23T14:00:12;16.57;;;4.83;;
19221;SDS011;9745;50.828;4.378;2023-05-23T14:02:39;12.53;;;4.07;;
19221;SDS011;9745;50.828;4.378;2023-05-23T14:05:05;11.70;;;3.57;;
19221;SDS011;9745;50.828;4.378;2023-05-23T14:07:31;15.90;;;4.00;;
19221;SDS011;9745;50.828;4.378;2023-05-23T14:09:58;14.03;;;3.80;;
19221;SDS011;9745;50.828;4.378;2023-05-23T14:12:24;16.87;;;3.80;;
19221;SDS011;9745;50.828;4.378;2023-05-23T14:14:50;10.97;;;3.90;;
19221;SDS011;9745;50.828;4.378;2023-05-23T14:17:16;21.50;;;4.00;;
19221;SDS011;9745;50.828;4.378;2023-05-23T14:19:42;13.53;;;3.97;;
19221;SDS011;9745;50.828;4.378;2023-05-23T14:22:08;16.20;;;4.03;;
19221;SDS011;9745;50.828;4.378;2023-05-23T14:24:35;14.30;;;4.90;;
19221;SDS011;9745;50.828;4.378;2023-05-23T14:27:01;18.27;;;3.87;;
19221;SDS011;9745;50.828;4.378;2023-05-23T14:29:27;10.23;;;3.70;;
19221;SDS011;9745;50.828;4.378;2023-05-23T14:31:53;19.57;;;3.53;;
19221;SDS011;9745;50.828;4.378;2023-05-23T14:34:19;12.77;;;3.50;;
19221;SDS011;9745;50.828;4.378;2023-05-23T14:36:46;14.67;;;4.30;;
19221;SDS011;9745;50.828;4.378;2023-05-23T14:39:11;9.97;;;2.87;;
19221;SDS011;9745;50.828;4.378;2023-05-23T14:41:38;12.13;;;3.63;;
19221;SDS011;9745;50.828;4.378;2023-05-23T14:44:04;16.80;;;3.70;;
19221;SDS011;9745;50.828;4.378;2023-05-23T14:46:31;18.60;;;4.00;;
19221;SDS011;9745;50.828;4.378;2023-05-23T14:48:56;20.30;;;3.80;;
19221;SDS011;9745;50.828;4.378;2023-05-23T14:51:22;11.10;;;3.70;;
19221;SDS011;9745;50.828;4.378;2023-05-23T14:53:49;12.63;;;3.30;;
19221;SDS011;9745;50.828;4.378;2023-05-23T14:56:15;14.30;;;3.40;;